createdAt,value
2017-08-26T00:02:04.738Z,28.90
2017-08-26T00:04:32.184Z,38.67
2017-08-26T00:06:59.633Z,36.90
2017-08-26T00:09:27.084Z,34.93
2017-08-26T00:11:54.546Z,33.10
2017-08-26T00:14:21.971Z,27.80
2017-08-26T00:16:49.452Z,29.53
2017-08-26T00:19:17.013Z,32.87
2017-08-26T00:21:44.480Z,26.47
2017-08-26T00:24:11.945Z,25.00
2017-08-26T00:26:39.385Z,30.23
2017-08-26T00:29:06.847Z,35.63
2017-08-26T00:31:34.398Z,33.90
2017-08-26T00:34:01.961Z,38.23
2017-08-26T00:36:29.408Z,37.00
2017-08-26T00:38:56.860Z,39.07
2017-08-26T00:41:24.319Z,37.10
2017-08-26T00:43:51.881Z,30.80
2017-08-26T00:46:19.347Z,27.07
2017-08-26T00:48:46.806Z,25.60
2017-08-26T00:51:14.257Z,28.50
2017-08-26T00:53:41.708Z,18.80
2017-08-26T00:56:09.177Z,19.77
2017-08-26T00:58:36.619Z,21.10
2017-08-26T01:01:04.083Z,23.97
2017-08-26T01:03:31.646Z,21.67
2017-08-26T01:05:59.102Z,23.30
2017-08-26T01:08:26.653Z,27.00
2017-08-26T01:10:54.111Z,26.20
2017-08-26T01:13:21.560Z,30.93
2017-08-26T01:15:49.012Z,27.77
2017-08-26T01:18:16.581Z,28.60
2017-08-26T01:20:44.042Z,32.60
2017-08-26T01:23:11.493Z,34.27
2017-08-26T01:25:39.062Z,38.53
2017-08-26T01:28:06.604Z,41.00
2017-08-26T01:30:34.052Z,47.93
2017-08-26T01:33:01.525Z,44.27
2017-08-26T01:35:28.974Z,51.53
2017-08-26T01:37:56.446Z,59.40
2017-08-26T01:40:23.902Z,55.47
2017-08-26T01:42:51.363Z,48.80
2017-08-26T01:45:18.809Z,56.60
2017-08-26T01:47:46.275Z,59.00
2017-08-26T01:50:13.821Z,53.70
2017-08-26T01:52:41.392Z,52.87
2017-08-26T01:55:08.946Z,46.17
2017-08-26T01:57:36.398Z,40.17
2017-08-26T02:00:03.845Z,33.70
2017-08-26T02:02:31.315Z,35.97
2017-08-26T02:04:58.769Z,38.23
2017-08-26T02:07:26.213Z,34.93
2017-08-26T02:09:53.787Z,43.37
2017-08-26T02:12:21.237Z,44.20
2017-08-26T02:14:48.812Z,41.90
2017-08-26T02:17:16.272Z,45.83
2017-08-26T02:19:43.722Z,51.67
2017-08-26T02:22:11.186Z,47.60
2017-08-26T02:24:38.730Z,46.40
2017-08-26T02:27:06.195Z,39.07
2017-08-26T02:29:33.744Z,52.07
2017-08-26T02:32:01.188Z,43.57
2017-08-26T02:34:28.650Z,47.47
2017-08-26T02:36:56.227Z,40.73
2017-08-26T02:39:23.677Z,37.63
2017-08-26T02:41:51.134Z,36.27
2017-08-26T02:44:18.592Z,34.07
2017-08-26T02:46:46.057Z,31.63
2017-08-26T02:49:13.605Z,36.83
2017-08-26T02:51:41.063Z,35.97
2017-08-26T02:54:08.512Z,36.70
2017-08-26T02:56:35.970Z,35.47
2017-08-26T02:59:03.422Z,30.60
2017-08-26T03:01:30.873Z,28.37
2017-08-26T03:03:58.332Z,30.00
2017-08-26T03:06:25.815Z,27.10
2017-08-26T03:08:53.265Z,26.03
2017-08-26T03:11:20.745Z,25.17
2017-08-26T03:13:48.189Z,22.30
2017-08-26T03:16:15.633Z,22.10
2017-08-26T03:18:43.176Z,19.30
2017-08-26T03:21:10.633Z,15.53
2017-08-26T03:23:38.090Z,14.27
2017-08-26T03:26:05.551Z,16.80
2017-08-26T03:28:33.014Z,13.70
2017-08-26T03:31:00.466Z,15.03
2017-08-26T03:33:27.908Z,16.60
2017-08-26T03:35:55.373Z,12.60
2017-08-26T03:38:22.951Z,14.80
2017-08-26T03:40:50.405Z,15.00
2017-08-26T03:43:17.857Z,15.00
2017-08-26T03:45:51.101Z,15.10
2017-08-26T03:48:18.549Z,14.60
2017-08-26T03:50:46.058Z,16.27
2017-08-26T03:53:13.509Z,17.60
2017-08-26T03:55:41.072Z,16.17
2017-08-26T03:58:08.535Z,14.87
2017-08-26T04:00:36.091Z,14.83
2017-08-26T04:03:03.641Z,24.30
2017-08-26T04:05:31.102Z,28.53
2017-08-26T04:07:58.566Z,34.43
2017-08-26T04:10:26.022Z,33.43
2017-08-26T04:12:53.483Z,32.70
2017-08-26T04:15:20.933Z,42.87
2017-08-26T04:17:48.390Z,37.27
2017-08-26T04:20:15.850Z,40.67
2017-08-26T04:22:43.313Z,41.33
2017-08-26T04:25:10.761Z,33.73
2017-08-26T04:27:38.221Z,31.17
2017-08-26T04:30:05.773Z,29.70
2017-08-26T04:32:33.238Z,31.70
2017-08-26T04:35:00.694Z,29.30
2017-08-26T04:37:28.154Z,32.60
2017-08-26T04:39:55.610Z,32.40
2017-08-26T04:42:23.065Z,33.67
2017-08-26T04:44:50.530Z,31.40
2017-08-26T04:47:17.984Z,31.67
2017-08-26T04:49:45.524Z,31.80
2017-08-26T04:52:12.972Z,31.77
2017-08-26T04:54:40.444Z,33.87
2017-08-26T04:57:07.893Z,35.40
2017-08-26T04:59:35.458Z,36.70
2017-08-26T05:02:02.913Z,34.97
2017-08-26T05:04:30.473Z,38.97
2017-08-26T05:06:57.929Z,35.27
2017-08-26T05:09:25.485Z,40.50
2017-08-26T05:11:52.961Z,34.13
2017-08-26T05:14:20.398Z,37.27
2017-08-26T05:16:47.970Z,52.27
2017-08-26T05:19:15.416Z,36.40
2017-08-26T05:21:42.981Z,45.77
2017-08-26T05:24:10.424Z,34.90
2017-08-26T05:26:37.885Z,34.57
2017-08-26T05:29:05.333Z,27.80
2017-08-26T05:31:32.793Z,28.33
2017-08-26T05:34:00.241Z,33.63
2017-08-26T05:36:27.709Z,29.03
2017-08-26T05:38:55.165Z,29.40
2017-08-26T05:41:22.621Z,29.47
2017-08-26T05:43:50.077Z,27.93
2017-08-26T05:46:17.549Z,27.07
2017-08-26T05:48:45.003Z,25.23
2017-08-26T05:51:12.452Z,22.07
2017-08-26T05:53:40.015Z,21.77
2017-08-26T05:56:07.461Z,21.20
2017-08-26T05:58:35.033Z,23.23
2017-08-26T06:01:02.481Z,20.57
2017-08-26T06:03:30.053Z,17.00
2017-08-26T06:05:57.514Z,19.80
2017-08-26T06:08:25.058Z,18.10
2017-08-26T06:10:52.514Z,19.77
2017-08-26T06:13:19.977Z,18.23
2017-08-26T06:15:47.429Z,14.77
2017-08-26T06:18:14.877Z,13.70
2017-08-26T06:20:42.339Z,16.73
2017-08-26T06:23:09.786Z,15.67
2017-08-26T06:25:37.235Z,16.73
2017-08-26T06:28:04.680Z,14.23
2017-08-26T06:30:32.179Z,15.90
2017-08-26T06:32:59.630Z,16.30
2017-08-26T06:35:27.192Z,30.20
2017-08-26T06:37:54.641Z,40.97
2017-08-26T06:40:22.093Z,45.57
2017-08-26T06:42:49.557Z,35.17
2017-08-26T06:45:17.019Z,28.20
2017-08-26T06:47:44.469Z,35.83
2017-08-26T06:50:11.934Z,20.60
2017-08-26T06:52:39.382Z,16.87
2017-08-26T06:55:06.948Z,13.77
2017-08-26T06:57:34.392Z,13.67
2017-08-26T07:00:01.849Z,12.93
2017-08-26T07:02:29.308Z,13.60
2017-08-26T07:04:56.748Z,14.70
2017-08-26T07:07:24.212Z,12.77
2017-08-26T07:09:51.665Z,11.60
2017-08-26T07:12:19.133Z,13.20
2017-08-26T07:14:46.698Z,13.03
2017-08-26T07:17:14.148Z,10.73
2017-08-26T07:19:41.609Z,11.90
2017-08-26T07:22:09.057Z,12.63
2017-08-26T07:24:36.523Z,13.30
2017-08-26T07:27:03.978Z,12.47
2017-08-26T07:29:31.545Z,11.27
2017-08-26T07:31:58.990Z,11.53
2017-08-26T07:34:26.555Z,9.80
2017-08-26T07:36:54.004Z,11.40
2017-08-26T07:39:21.467Z,11.27
2017-08-26T07:41:48.922Z,10.97
2017-08-26T07:44:16.382Z,10.20
2017-08-26T07:46:43.833Z,10.50
2017-08-26T07:49:11.288Z,12.37
2017-08-26T07:51:38.854Z,12.67
2017-08-26T07:54:06.302Z,10.57
2017-08-26T07:56:33.766Z,11.07
2017-08-26T07:59:01.212Z,11.43
2017-08-26T08:01:28.674Z,10.97
2017-08-26T08:03:56.127Z,12.50
2017-08-26T08:06:23.580Z,12.50
2017-08-26T08:08:51.039Z,11.27
2017-08-26T08:11:18.613Z,12.10
2017-08-26T08:13:46.061Z,12.17
2017-08-26T08:16:13.509Z,14.93
2017-08-26T08:18:40.973Z,12.97
2017-08-26T08:21:08.438Z,13.13
2017-08-26T08:23:35.990Z,14.97
2017-08-26T08:26:03.439Z,12.97
2017-08-26T08:28:30.905Z,14.43
2017-08-26T08:30:58.349Z,13.97
2017-08-26T08:33:25.802Z,14.27
2017-08-26T08:35:53.278Z,11.77
2017-08-26T08:38:20.729Z,12.27
2017-08-26T08:40:48.186Z,13.30
2017-08-26T08:43:15.637Z,12.90
2017-08-26T08:45:43.089Z,12.63
2017-08-26T08:48:10.563Z,12.00
2017-08-26T08:50:38.009Z,13.57
2017-08-26T08:53:05.457Z,13.17
2017-08-26T08:55:34.048Z,11.90
2017-08-26T08:58:01.495Z,12.17
2017-08-26T09:00:28.972Z,12.97
2017-08-26T09:02:56.408Z,11.73
2017-08-26T09:05:23.885Z,11.93
2017-08-26T09:07:51.329Z,11.23
2017-08-26T09:10:18.785Z,12.67
2017-08-26T09:12:46.244Z,11.30
2017-08-26T09:15:13.706Z,12.20
2017-08-26T09:17:41.156Z,11.03
2017-08-26T09:20:08.614Z,11.53
2017-08-26T09:22:36.089Z,10.77
2017-08-26T09:25:03.545Z,10.00
2017-08-26T09:27:31.094Z,11.03
2017-08-26T09:29:58.553Z,10.37
2017-08-26T09:32:25.996Z,10.13
2017-08-26T09:34:53.457Z,10.47
2017-08-26T09:37:21.025Z,9.47
2017-08-26T09:39:48.478Z,10.77
2017-08-26T09:42:16.037Z,10.87
2017-08-26T09:44:43.491Z,9.70
2017-08-26T09:47:10.942Z,9.80
2017-08-26T09:49:38.388Z,9.43
2017-08-26T09:52:05.842Z,9.47
2017-08-26T09:54:33.297Z,10.30
2017-08-26T09:57:01.583Z,10.23
2017-08-26T10:02:02.985Z,9.50
2017-08-26T10:04:30.434Z,9.20
2017-08-26T10:06:57.887Z,9.80
2017-08-26T10:09:25.336Z,8.57
2017-08-26T10:11:52.776Z,9.40
2017-08-26T10:14:20.217Z,8.33
2017-08-26T10:16:47.932Z,8.97
2017-08-26T10:19:15.381Z,8.67
2017-08-26T10:21:42.891Z,9.33
2017-08-26T10:24:10.329Z,8.50
2017-08-26T10:26:37.773Z,8.73
2017-08-26T10:29:05.221Z,8.80
2017-08-26T10:31:32.673Z,10.40
2017-08-26T10:34:00.125Z,9.50
2017-08-26T10:36:27.584Z,8.75
2017-08-26T10:38:55.030Z,8.00
2017-08-26T10:41:23.319Z,7.43
2017-08-26T10:43:50.787Z,8.27
2017-08-26T10:46:18.237Z,8.47
2017-08-26T10:48:45.677Z,7.90
2017-08-26T10:51:13.133Z,8.13
2017-08-26T10:53:40.586Z,7.70
2017-08-26T10:56:08.020Z,7.70
2017-08-26T10:58:35.475Z,8.37
2017-08-26T11:01:02.921Z,8.37
2017-08-26T11:03:30.367Z,8.20
2017-08-26T11:05:57.826Z,7.83
2017-08-26T11:08:25.266Z,8.37
2017-08-26T11:10:52.713Z,7.73
2017-08-26T11:13:20.159Z,7.70
2017-08-26T11:15:47.617Z,6.93
2017-08-26T11:18:15.061Z,7.57
2017-08-26T11:20:42.505Z,7.07
2017-08-26T11:23:09.956Z,7.43
2017-08-26T11:25:37.398Z,7.10
2017-08-26T11:28:04.845Z,7.30
2017-08-26T11:30:32.289Z,7.00
2017-08-26T11:32:59.746Z,6.67
2017-08-26T11:35:27.197Z,6.60
2017-08-26T11:37:54.659Z,6.80
2017-08-26T11:40:22.111Z,6.80
2017-08-26T11:42:49.570Z,6.90
2017-08-26T11:45:17.016Z,6.93
2017-08-26T11:47:44.465Z,6.53
2017-08-26T11:50:11.910Z,6.70
2017-08-26T11:52:39.379Z,5.20
2017-08-26T11:55:06.848Z,5.63
2017-08-26T11:57:34.291Z,5.70
2017-08-26T12:00:01.764Z,6.40
2017-08-26T12:02:29.203Z,5.80
2017-08-26T12:04:56.649Z,5.33
2017-08-26T12:07:24.100Z,5.67
2017-08-26T12:09:51.552Z,6.07
2017-08-26T12:12:19.010Z,6.23
2017-08-26T12:14:46.465Z,6.30
2017-08-26T12:17:13.911Z,5.90
2017-08-26T12:19:41.369Z,5.67
2017-08-26T12:22:08.822Z,5.57
2017-08-26T12:24:36.274Z,5.80
2017-08-26T12:27:03.746Z,6.37
2017-08-26T12:29:31.198Z,6.03
2017-08-26T12:31:58.673Z,5.77
2017-08-26T12:34:26.116Z,6.10
2017-08-26T12:36:53.565Z,6.10
2017-08-26T12:39:21.035Z,6.60
2017-08-26T12:41:48.536Z,5.27
2017-08-26T12:44:15.994Z,5.13
2017-08-26T12:46:43.473Z,5.10
2017-08-26T12:49:10.939Z,5.23
2017-08-26T12:51:38.386Z,6.27
2017-08-26T12:54:05.836Z,6.00
2017-08-26T12:56:33.303Z,5.00
2017-08-26T12:59:00.760Z,5.03
2017-08-26T13:01:28.204Z,5.40
2017-08-26T13:03:55.673Z,6.80
2017-08-26T13:06:23.120Z,6.53
2017-08-26T13:08:50.565Z,5.80
2017-08-26T13:11:18.015Z,6.03
2017-08-26T13:13:45.523Z,5.90
2017-08-26T13:16:12.980Z,6.00
2017-08-26T13:18:40.441Z,5.80
2017-08-26T13:21:07.884Z,6.50
2017-08-26T13:23:35.342Z,6.80
2017-08-26T13:26:02.808Z,5.93
2017-08-26T13:28:30.295Z,6.57
2017-08-26T13:30:57.758Z,7.27
2017-08-26T13:33:25.202Z,6.30
2017-08-26T13:35:52.679Z,5.80
2017-08-26T13:38:20.151Z,5.97
2017-08-26T13:40:47.624Z,6.33
2017-08-26T13:43:15.091Z,6.57
2017-08-26T13:45:42.565Z,6.03
2017-08-26T13:48:10.047Z,6.57
2017-08-26T13:50:37.506Z,6.20
2017-08-26T13:53:04.965Z,6.47
2017-08-26T13:55:32.419Z,7.10
2017-08-26T13:57:59.872Z,7.40
2017-08-26T14:00:27.330Z,6.33
2017-08-26T14:02:54.815Z,7.07
2017-08-26T14:05:22.321Z,7.37
2017-08-26T14:07:49.798Z,6.57
2017-08-26T14:10:17.263Z,6.97
2017-08-26T14:12:44.713Z,7.47
2017-08-26T14:15:12.156Z,7.50
2017-08-26T14:17:39.634Z,7.20
2017-08-26T14:20:07.076Z,7.90
2017-08-26T14:22:34.540Z,7.60
2017-08-26T14:25:01.981Z,7.63
2017-08-26T14:27:29.450Z,7.67
2017-08-26T14:29:56.904Z,7.43
2017-08-26T14:32:24.371Z,6.40
2017-08-26T14:34:51.814Z,7.43
2017-08-26T14:37:19.259Z,7.43
2017-08-26T14:39:46.702Z,7.77
2017-08-26T14:42:14.162Z,8.63
2017-08-26T14:44:41.622Z,7.80
2017-08-26T14:47:09.085Z,8.83
2017-08-26T14:49:36.553Z,8.10
2017-08-26T14:52:04.017Z,7.30
2017-08-26T14:54:31.488Z,6.93
2017-08-26T14:56:58.930Z,8.77
2017-08-26T14:59:26.398Z,7.60
2017-08-26T15:01:53.847Z,7.10
2017-08-26T15:04:21.299Z,7.50
2017-08-26T15:06:49.286Z,7.30
2017-08-26T15:09:16.767Z,6.87
2017-08-26T15:11:44.220Z,7.23
2017-08-26T15:14:11.680Z,7.00
2017-08-26T15:16:39.147Z,7.50
2017-08-26T15:19:06.657Z,8.00
2017-08-26T15:21:34.132Z,7.40
2017-08-26T15:24:01.597Z,7.47
2017-08-26T15:26:29.059Z,8.67
2017-08-26T15:28:56.511Z,8.23
2017-08-26T15:31:23.961Z,7.60
2017-08-26T15:33:51.417Z,8.23
2017-08-26T15:36:18.868Z,9.00
2017-08-26T15:38:46.315Z,8.90
2017-08-26T15:41:13.773Z,8.17
2017-08-26T15:43:41.220Z,7.83
2017-08-26T15:46:08.699Z,8.37
2017-08-26T15:48:36.140Z,8.40
2017-08-26T15:51:03.600Z,7.90
2017-08-26T15:53:31.054Z,8.30
2017-08-26T15:55:58.493Z,8.63
2017-08-26T15:58:25.954Z,8.00
2017-08-26T16:00:53.422Z,9.67
2017-08-26T16:03:20.891Z,8.63
2017-08-26T16:05:48.346Z,8.40
2017-08-26T16:08:15.809Z,7.77
2017-08-26T16:10:43.290Z,8.90
2017-08-26T16:13:10.747Z,8.70
2017-08-26T16:15:38.195Z,8.97
2017-08-26T16:18:05.655Z,9.10
2017-08-26T16:20:33.101Z,9.00
2017-08-26T16:23:00.560Z,9.50
2017-08-26T16:25:28.018Z,8.43
2017-08-26T16:27:55.477Z,9.53
2017-08-26T16:30:22.929Z,8.80
2017-08-26T16:32:50.381Z,9.00
2017-08-26T16:35:17.857Z,9.10
2017-08-26T16:37:45.318Z,9.20
2017-08-26T16:40:12.793Z,8.17
2017-08-26T16:42:40.279Z,9.37
2017-08-26T16:45:07.738Z,9.47
2017-08-26T16:47:35.219Z,9.33
2017-08-26T16:50:02.684Z,9.37
2017-08-26T16:52:30.542Z,8.83
2017-08-26T16:54:58.021Z,9.20
2017-08-26T16:57:25.478Z,8.80
2017-08-26T16:59:52.935Z,9.17
2017-08-26T17:02:20.393Z,9.50
2017-08-26T17:04:47.834Z,9.93
2017-08-26T17:07:15.303Z,10.83
2017-08-26T17:09:42.749Z,9.10
2017-08-26T17:12:10.210Z,11.03
2017-08-26T17:14:37.648Z,11.03
2017-08-26T17:17:05.115Z,10.63
2017-08-26T17:19:32.556Z,10.57
2017-08-26T17:22:00.049Z,11.67
2017-08-26T17:24:27.497Z,12.53
2017-08-26T17:26:54.945Z,12.37
2017-08-26T17:29:22.397Z,11.60
2017-08-26T17:31:49.855Z,12.27
2017-08-26T17:34:17.297Z,11.90
2017-08-26T17:36:44.885Z,12.40
2017-08-26T17:39:12.503Z,13.13
2017-08-26T17:41:40.618Z,12.67
2017-08-26T17:44:08.065Z,12.63
2017-08-26T17:46:35.508Z,12.73
2017-08-26T17:49:02.957Z,14.30
2017-08-26T17:51:30.410Z,14.00
2017-08-26T17:53:57.871Z,13.87
2017-08-26T17:56:25.319Z,12.70
2017-08-26T17:58:52.791Z,15.10
2017-08-26T18:01:20.245Z,17.00
2017-08-26T18:03:47.698Z,15.60
2017-08-26T18:06:15.148Z,18.13
2017-08-26T18:08:42.606Z,17.27
2017-08-26T18:11:10.052Z,16.50
2017-08-26T18:13:37.510Z,16.17
2017-08-26T18:16:04.988Z,16.20
2017-08-26T18:18:32.430Z,14.53
2017-08-26T18:20:59.882Z,15.10
2017-08-26T18:23:27.328Z,16.80
2017-08-26T18:25:54.784Z,15.53
2017-08-26T18:28:22.234Z,19.67
2017-08-26T18:30:49.690Z,17.73
2017-08-26T18:33:17.190Z,16.20
2017-08-26T18:35:44.652Z,17.30
2017-08-26T18:38:12.105Z,15.13
2017-08-26T18:40:39.554Z,17.90
2017-08-26T18:43:07.008Z,17.40
2017-08-26T18:45:34.456Z,16.43
2017-08-26T18:48:01.913Z,17.80
2017-08-26T18:50:29.357Z,15.93
2017-08-26T18:52:56.833Z,18.03
2017-08-26T18:55:24.268Z,16.53
2017-08-26T18:57:51.730Z,17.20
2017-08-26T19:00:19.177Z,18.33
2017-08-26T19:02:46.629Z,17.43
2017-08-26T19:05:14.082Z,16.53
2017-08-26T19:07:41.548Z,18.20
2017-08-26T19:10:09.029Z,17.60
2017-08-26T19:12:36.482Z,16.20
2017-08-26T19:15:03.947Z,17.57
2017-08-26T19:17:31.400Z,17.60
2017-08-26T19:19:58.966Z,18.13
2017-08-26T19:22:26.518Z,18.43
2017-08-26T19:24:53.969Z,17.83
2017-08-26T19:27:21.414Z,16.50
2017-08-26T19:29:48.877Z,16.97
2017-08-26T19:32:16.330Z,18.23
2017-08-26T19:34:43.790Z,17.67
2017-08-26T19:37:11.233Z,17.17
2017-08-26T19:39:38.693Z,18.20
2017-08-26T19:42:06.140Z,18.07
2017-08-26T19:44:33.600Z,18.37
2017-08-26T19:47:01.058Z,17.50
2017-08-26T19:49:28.510Z,17.70
2017-08-26T19:51:55.972Z,16.73
2017-08-26T19:54:23.412Z,17.90
2017-08-26T19:56:50.871Z,17.47
2017-08-26T19:59:18.382Z,19.20
2017-08-26T20:01:45.829Z,17.60
2017-08-26T20:04:13.281Z,18.60
2017-08-26T20:06:40.729Z,19.83
2017-08-26T20:09:08.180Z,19.50
2017-08-26T20:11:35.643Z,20.40
2017-08-26T20:14:03.094Z,19.03
2017-08-26T20:16:30.541Z,18.77
2017-08-26T20:18:57.993Z,18.90
2017-08-26T20:21:25.445Z,19.13
2017-08-26T20:23:52.907Z,20.07
2017-08-26T20:26:20.395Z,20.40
2017-08-26T20:28:51.034Z,18.57
2017-08-26T20:31:18.505Z,19.50
2017-08-26T20:33:45.971Z,20.13
2017-08-26T20:36:13.482Z,21.50
2017-08-26T20:38:40.962Z,21.50
2017-08-26T20:41:08.421Z,21.00
2017-08-26T20:43:35.885Z,20.97
2017-08-26T20:46:03.340Z,19.97
2017-08-26T20:48:30.834Z,21.70
2017-08-26T20:50:58.347Z,22.47
2017-08-26T20:53:25.816Z,21.40
2017-08-26T20:55:53.294Z,22.53
2017-08-26T20:58:20.762Z,21.33
2017-08-26T21:00:48.301Z,20.93
2017-08-26T21:03:15.821Z,21.80
2017-08-26T21:05:43.443Z,21.23
2017-08-26T21:08:10.954Z,22.03
2017-08-26T21:10:38.425Z,20.17
2017-08-26T21:13:05.886Z,16.77
2017-08-26T21:15:33.423Z,18.77
2017-08-26T21:18:00.913Z,21.20
2017-08-26T21:20:28.439Z,18.87
2017-08-26T21:22:55.941Z,20.87
2017-08-26T21:25:23.463Z,22.40
2017-08-26T21:27:50.993Z,21.83
2017-08-26T21:30:18.528Z,22.90
2017-08-26T21:32:46.060Z,23.53
2017-08-26T21:35:13.561Z,23.20
2017-08-26T21:37:41.100Z,23.10
2017-08-26T21:40:08.650Z,21.13
2017-08-26T21:42:36.170Z,20.57
2017-08-26T21:45:03.963Z,23.30
2017-08-26T21:47:31.472Z,19.87
2017-08-26T21:49:58.977Z,21.23
2017-08-26T21:52:26.504Z,21.27
2017-08-26T21:54:54.036Z,20.10
2017-08-26T21:57:21.565Z,21.97
2017-08-26T21:59:49.080Z,23.57
2017-08-26T22:02:16.599Z,22.37
2017-08-26T22:04:44.138Z,22.90
2017-08-26T22:07:11.655Z,26.53
2017-08-26T22:09:39.164Z,23.67
2017-08-26T22:12:06.647Z,24.73
2017-08-26T22:14:34.159Z,21.90
2017-08-26T22:17:01.650Z,23.60
2017-08-26T22:19:29.161Z,21.60
2017-08-26T22:21:56.676Z,23.83
2017-08-26T22:24:24.184Z,27.70
2017-08-26T22:26:51.683Z,27.40
2017-08-26T22:29:19.171Z,28.53
2017-08-26T22:31:46.672Z,25.93
2017-08-26T22:34:14.176Z,28.37
2017-08-26T22:36:41.691Z,28.07
2017-08-26T22:39:09.187Z,27.77
2017-08-26T22:41:36.715Z,28.50
2017-08-26T22:44:04.230Z,31.90
2017-08-26T22:46:31.756Z,26.90
2017-08-26T22:48:59.276Z,27.37
2017-08-26T22:51:26.788Z,26.97
2017-08-26T22:53:54.315Z,29.63
2017-08-26T22:56:21.825Z,29.60
2017-08-26T22:58:49.332Z,27.33
2017-08-26T23:01:16.847Z,26.60
2017-08-26T23:03:44.292Z,28.23
2017-08-26T23:06:13.502Z,26.27
2017-08-26T23:08:41.025Z,25.53
2017-08-26T23:11:08.531Z,26.90
2017-08-26T23:13:36.019Z,28.87
2017-08-26T23:16:03.551Z,27.03
2017-08-26T23:18:31.055Z,29.80
2017-08-26T23:20:58.578Z,24.83
2017-08-26T23:23:26.084Z,24.73
2017-08-26T23:25:53.591Z,25.10
2017-08-26T23:28:21.103Z,24.60
2017-08-26T23:30:48.612Z,25.33
2017-08-26T23:33:16.140Z,24.87
2017-08-26T23:35:43.639Z,26.50
2017-08-26T23:38:11.195Z,26.97
2017-08-26T23:40:38.747Z,27.77
2017-08-26T23:43:06.287Z,26.30
2017-08-26T23:45:33.823Z,28.70
2017-08-26T23:48:11.323Z,32.20
2017-08-26T23:50:38.930Z,29.23
2017-08-26T23:55:40.401Z,30.90
2017-08-26T23:58:07.922Z,34.07
